Time;durP1;ratioP1;P1;durP2;ratioP2;P2;SDS_P1;SDS_P2;PMS_P1;PMS_P2;Temp;Humidity;BMP_temperature;BMP_pressure;BME280_temperature;BME280_humidity;BME280_pressure;Samples;Min_cycle;Max_cycle;Signal;HPM_P1;HPM_P2
2023/11/07 00:00:30;;;;;;;8.68;2.50;;;;;;;;;;6258622;22;20129;-73
2023/11/07 00:02:55;;;;;;;9.02;2.60;;;;;;;;;;6284478;22;20541;-73
2023/11/07 00:05:21;;;;;;;7.43;2.50;;;;;;;;;;6257644;22;19999;-72
2023/11/07 00:07:46;;;;;;;6.97;2.70;;;;;;;;;;6283329;22;20695;-73
2023/11/07 00:10:11;;;;;;;9.55;2.85;;;;;;;;;;6253279;22;20003;-70
2023/11/07 00:12:37;;;;;;;8.18;2.60;;;;;;;;;;6247896;22;20003;-70
2023/11/07 00:15:03;;;;;;;9.32;3.03;;;;;;;;;;6242652;22;20018;-70
2023/11/07 00:17:28;;;;;;;7.20;2.83;;;;;;;;;;6249726;22;20007;-72
2023/11/07 00:19:56;;;;;;;7.07;2.55;;;;;;;;;;6252273;22;20783;-72
2023/11/07 00:22:22;;;;;;;6.38;2.65;;;;;;;;;;6260030;22;19999;-73
2023/11/07 00:24:48;;;;;;;6.88;2.60;;;;;;;;;;6250562;22;20018;-73
2023/11/07 00:27:14;;;;;;;5.97;2.70;;;;;;;;;;6275969;22;20003;-72
2023/11/07 00:29:39;;;;;;;8.65;2.60;;;;;;;;;;6286400;22;20030;-72
2023/11/07 00:32:05;;;;;;;7.73;2.43;;;;;;;;;;6282027;22;20030;-73
2023/11/07 00:34:30;;;;;;;7.30;2.70;;;;;;;;;;6250495;22;20279;-73
2023/11/07 00:36:57;;;;;;;6.45;2.67;;;;;;;;;;6249089;22;20023;-72
2023/11/07 00:39:23;;;;;;;6.40;2.75;;;;;;;;;;6277249;22;20477;-72
2023/11/07 00:41:48;;;;;;;9.27;2.83;;;;;;;;;;6276458;22;20393;-72
2023/11/07 00:44:13;;;;;;;6.37;2.90;;;;;;;;;;6281523;22;20025;-72
2023/11/07 00:46:39;;;;;;;6.05;2.50;;;;;;;;;;6262104;22;20273;-72
2023/11/07 00:49:07;;;;;;;6.57;2.70;;;;;;;;;;6260999;22;20725;-72
2023/11/07 00:51:32;;;;;;;7.18;2.90;;;;;;;;;;6288268;22;20790;-70
2023/11/07 00:53:57;;;;;;;7.68;2.40;;;;;;;;;;6260809;22;20021;-71
2023/11/07 00:56:23;;;;;;;7.07;2.72;;;;;;;;;;6288988;22;20528;-70
2023/11/07 00:58:49;;;;;;;7.55;2.50;;;;;;;;;;6260527;22;20431;-71
2023/11/07 01:01:17;;;;;;;8.32;2.50;;;;;;;;;;6285110;22;20070;-70
2023/11/07 01:03:44;;;;;;;8.25;2.78;;;;;;;;;;6259670;22;20003;-71
2023/11/07 01:06:11;;;;;;;6.13;2.40;;;;;;;;;;6247918;22;19999;-72
2023/11/07 01:08:37;;;;;;;8.50;2.70;;;;;;;;;;6275963;22;20521;-69
2023/11/07 01:11:03;;;;;;;9.05;2.70;;;;;;;;;;6275691;22;20049;-69
2023/11/07 01:13:30;;;;;;;9.93;2.75;;;;;;;;;;6279236;22;19999;-70
2023/11/07 01:15:56;;;;;;;8.25;3.30;;;;;;;;;;6271265;22;19999;-72
2023/11/07 01:18:21;;;;;;;8.63;3.00;;;;;;;;;;6248138;22;20011;-70
2023/11/07 01:20:46;;;;;;;7.50;2.80;;;;;;;;;;6275193;22;20003;-71
2023/11/07 01:23:12;;;;;;;7.60;2.78;;;;;;;;;;6245460;22;20499;-71
2023/11/07 01:25:38;;;;;;;5.82;2.90;;;;;;;;;;6276699;22;20091;-71
2023/11/07 01:28:03;;;;;;;6.30;2.83;;;;;;;;;;6248127;22;20110;-71
2023/11/07 01:30:30;;;;;;;6.50;2.50;;;;;;;;;;6275215;22;20025;-71
2023/11/07 01:32:57;;;;;;;7.15;2.45;;;;;;;;;;6275995;22;19995;-70
2023/11/07 01:35:22;;;;;;;5.43;2.20;;;;;;;;;;6277044;22;20366;-70
2023/11/07 01:37:47;;;;;;;7.07;2.35;;;;;;;;;;6247407;22;20102;-75
2023/11/07 01:40:13;;;;;;;6.20;2.28;;;;;;;;;;6282281;22;20064;-71
2023/11/07 01:42:45;;;;;;;6.63;2.42;;;;;;;;;;6259728;22;20011;-71
2023/11/07 01:45:13;;;;;;;7.80;2.20;;;;;;;;;;6283950;22;20041;-72
2023/11/07 01:47:42;;;;;;;8.25;3.13;;;;;;;;;;6282126;22;20015;-73
2023/11/07 01:50:13;;;;;;;5.10;2.30;;;;;;;;;;6286236;22;19999;-70
2023/11/07 01:52:42;;;;;;;5.70;2.20;;;;;;;;;;6289157;22;20399;-72
2023/11/07 01:55:08;;;;;;;4.68;1.90;;;;;;;;;;6253784;22;20133;-73
2023/11/07 01:57:34;;;;;;;7.30;2.40;;;;;;;;;;6277164;22;20010;-72
2023/11/07 02:00:00;;;;;;;5.40;1.90;;;;;;;;;;6257047;22;20489;-72
2023/11/07 02:02:25;;;;;;;5.85;1.77;;;;;;;;;;6286311;22;20106;-72
2023/11/07 02:04:50;;;;;;;6.22;1.90;;;;;;;;;;6259882;22;20507;-71
2023/11/07 02:07:15;;;;;;;4.72;1.77;;;;;;;;;;6245512;22;20007;-71
2023/11/07 02:09:41;;;;;;;7.10;1.98;;;;;;;;;;6276825;22;20511;-69
2023/11/07 02:12:08;;;;;;;6.32;1.80;;;;;;;;;;6272915;22;20407;-69
2023/11/07 02:14:35;;;;;;;6.40;1.90;;;;;;;;;;6275894;22;20747;-71
2023/11/07 02:17:01;;;;;;;5.32;1.98;;;;;;;;;;6245590;22;20011;-73
2023/11/07 02:19:28;;;;;;;4.47;1.58;;;;;;;;;;6246002;22;20030;-71
2023/11/07 02:21:57;;;;;;;5.03;1.80;;;;;;;;;;6246512;22;20003;-73
2023/11/07 02:24:23;;;;;;;5.60;1.85;;;;;;;;;;6249383;22;20110;-73
2023/11/07 02:26:52;;;;;;;7.35;1.60;;;;;;;;;;6246291;22;20072;-73
2023/11/07 02:29:17;;;;;;;5.25;1.90;;;;;;;;;;6247551;22;20534;-73
2023/11/07 02:31:46;;;;;;;4.70;1.40;;;;;;;;;;6256857;22;19999;-73
2023/11/07 02:34:11;;;;;;;4.50;1.15;;;;;;;;;;6283968;22;20003;-72
2023/11/07 02:36:39;;;;;;;4.90;1.50;;;;;;;;;;6256659;22;20003;-72
2023/11/07 02:39:07;;;;;;;3.67;1.20;;;;;;;;;;6284461;22;20057;-71
2023/11/07 02:41:32;;;;;;;3.78;1.20;;;;;;;;;;6259382;22;20525;-71
2023/11/07 02:43:58;;;;;;;5.05;1.40;;;;;;;;;;6282095;22;20094;-71
2023/11/07 02:46:26;;;;;;;5.10;1.60;;;;;;;;;;6238967;22;20012;-72
2023/11/07 02:48:51;;;;;;;5.53;1.23;;;;;;;;;;6240333;22;20094;-71
2023/11/07 02:51:17;;;;;;;4.00;1.25;;;;;;;;;;6254021;22;20092;-68
2023/11/07 02:53:42;;;;;;;3.10;0.90;;;;;;;;;;6255343;22;20102;-71
2023/11/07 02:56:07;;;;;;;3.00;0.80;;;;;;;;;;6249495;22;20118;-71
2023/11/07 02:58:33;;;;;;;3.53;0.70;;;;;;;;;;6255229;22;20054;-69
2023/11/07 03:00:59;;;;;;;2.42;0.60;;;;;;;;;;6253405;22;19996;-71
2023/11/07 03:03:25;;;;;;;3.35;0.80;;;;;;;;;;6257433;22;20057;-69
2023/11/07 03:05:50;;;;;;;2.03;0.70;;;;;;;;;;6256427;22;20426;-71
2023/11/07 03:08:17;;;;;;;4.00;0.80;;;;;;;;;;6255986;22;20010;-70
2023/11/07 03:10:42;;;;;;;3.30;0.70;;;;;;;;;;6254007;22;20127;-70
2023/11/07 03:13:08;;;;;;;3.28;0.68;;;;;;;;;;6252351;22;20571;-71
2023/11/07 03:15:34;;;;;;;2.67;0.60;;;;;;;;;;6255620;22;20672;-71
2023/11/07 03:17:59;;;;;;;1.85;0.60;;;;;;;;;;6254712;22;20102;-70
2023/11/07 03:20:24;;;;;;;2.75;0.60;;;;;;;;;;6248474;22;20006;-70
2023/11/07 03:22:50;;;;;;;2.75;0.80;;;;;;;;;;6250820;22;20008;-70
2023/11/07 03:25:16;;;;;;;1.95;0.68;;;;;;;;;;6253409;22;19996;-70
2023/11/07 03:27:41;;;;;;;3.53;0.80;;;;;;;;;;6252923;22;20044;-69
2023/11/07 03:30:09;;;;;;;2.50;0.80;;;;;;;;;;6254182;22;19999;-70
2023/11/07 03:32:39;;;;;;;3.05;0.80;;;;;;;;;;6248718;22;20416;-70
2023/11/07 03:35:05;;;;;;;6.50;1.88;;;;;;;;;;6255823;22;20078;-70
2023/11/07 03:37:30;;;;;;;4.13;1.15;;;;;;;;;;6250670;22;20404;-70
2023/11/07 03:39:58;;;;;;;3.25;0.88;;;;;;;;;;6243636;22;20298;-70
2023/11/07 03:42:23;;;;;;;4.32;0.88;;;;;;;;;;6241648;22;19996;-70
2023/11/07 03:44:51;;;;;;;3.25;0.85;;;;;;;;;;6239538;22;19999;-70
2023/11/07 03:47:17;;;;;;;2.47;0.60;;;;;;;;;;6265633;22;20451;-69
2023/11/07 03:49:43;;;;;;;1.63;0.60;;;;;;;;;;6255423;22;20061;-69
2023/11/07 03:52:08;;;;;;;2.13;0.70;;;;;;;;;;6272105;22;19999;-70
2023/11/07 03:54:33;;;;;;;4.80;0.95;;;;;;;;;;6257602;22;19999;-70
2023/11/07 03:56:59;;;;;;;4.47;1.00;;;;;;;;;;6287502;22;20004;-70
2023/11/07 03:59:24;;;;;;;2.67;0.90;;;;;;;;;;6286455;22;20003;-70
2023/11/07 04:01:51;;;;;;;3.53;0.70;;;;;;;;;;6253173;22;20054;-70
2023/11/07 04:04:18;;;;;;;2.65;0.75;;;;;;;;;;6276523;22;20000;-68
2023/11/07 04:06:43;;;;;;;3.08;0.70;;;;;;;;;;6282890;22;20535;-71
2023/11/07 04:09:08;;;;;;;3.65;0.82;;;;;;;;;;6283956;22;19991;-71
2023/11/07 04:11:34;;;;;;;2.45;0.70;;;;;;;;;;6260159;22;20810;-71
2023/11/07 04:14:03;;;;;;;3.72;0.90;;;;;;;;;;6263039;22;19999;-71
2023/11/07 04:16:29;;;;;;;2.72;1.02;;;;;;;;;;6259119;22;20007;-70
2023/11/07 04:18:54;;;;;;;2.05;0.60;;;;;;;;;;6264509;22;20018;-70
2023/11/07 04:21:20;;;;;;;2.38;0.70;;;;;;;;;;6260345;22;20049;-70
2023/11/07 04:23:45;;;;;;;3.92;0.80;;;;;;;;;;6284860;22;20029;-69
2023/11/07 04:26:10;;;;;;;3.33;0.80;;;;;;;;;;6288128;22;19999;-70
2023/11/07 04:28:39;;;;;;;3.10;1.00;;;;;;;;;;6287369;22;20293;-70
2023/11/07 04:31:07;;;;;;;2.55;0.90;;;;;;;;;;6276896;22;21121;-69
2023/11/07 04:33:33;;;;;;;3.47;1.40;;;;;;;;;;6256989;22;20094;-69
2023/11/07 04:35:58;;;;;;;4.22;1.30;;;;;;;;;;6261054;22;20775;-71
2023/11/07 04:38:24;;;;;;;4.38;1.30;;;;;;;;;;6290543;22;20060;-70
2023/11/07 04:40:49;;;;;;;3.08;0.90;;;;;;;;;;6260217;22;20656;-69
2023/11/07 04:43:15;;;;;;;3.35;0.98;;;;;;;;;;6289227;22;20079;-69
2023/11/07 04:45:40;;;;;;;3.20;1.00;;;;;;;;;;6262508;22;20691;-69
2023/11/07 04:48:11;;;;;;;4.30;1.20;;;;;;;;;;6259326;22;20031;-69
2023/11/07 04:50:36;;;;;;;2.63;0.90;;;;;;;;;;6290996;22;20007;-69
2023/11/07 04:53:04;;;;;;;2.80;0.73;;;;;;;;;;6254517;22;19999;-69
2023/11/07 04:55:29;;;;;;;2.97;0.73;;;;;;;;;;6262300;22;20236;-69
2023/11/07 04:57:54;;;;;;;2.67;0.70;;;;;;;;;;6286686;22;20098;-70
2023/11/07 05:00:24;;;;;;;2.30;0.70;;;;;;;;;;6288676;22;19999;-69
2023/11/07 05:02:50;;;;;;;3.47;0.90;;;;;;;;;;6287704;22;20220;-69
2023/11/07 05:05:15;;;;;;;2.05;0.77;;;;;;;;;;6259263;22;19999;-69
2023/11/07 05:07:41;;;;;;;2.30;0.70;;;;;;;;;;6260686;22;20614;-69
2023/11/07 05:10:09;;;;;;;3.40;0.90;;;;;;;;;;6247151;22;20029;-69
2023/11/07 05:12:35;;;;;;;3.38;1.02;;;;;;;;;;6254270;22;19999;-68
2023/11/07 05:15:00;;;;;;;6.72;1.33;;;;;;;;;;6286166;22;20049;-67
2023/11/07 05:17:26;;;;;;;3.20;0.90;;;;;;;;;;6247448;22;20749;-67
2023/11/07 05:19:51;;;;;;;4.00;1.00;;;;;;;;;;6248375;22;20003;-68
2023/11/07 05:22:16;;;;;;;3.67;0.80;;;;;;;;;;6250304;22;20060;-70
2023/11/07 05:24:41;;;;;;;4.00;0.90;;;;;;;;;;6260566;22;20052;-71
2023/11/07 05:27:07;;;;;;;3.03;1.10;;;;;;;;;;6285563;22;20213;-70
2023/11/07 05:29:32;;;;;;;3.65;1.00;;;;;;;;;;6286748;22;20335;-72
2023/11/07 05:31:58;;;;;;;4.20;0.90;;;;;;;;;;6280863;22;20125;-71
2023/11/07 05:34:23;;;;;;;2.45;0.75;;;;;;;;;;6287120;22;20698;-70
2023/11/07 05:36:49;;;;;;;6.53;1.00;;;;;;;;;;6258246;22;20003;-70
2023/11/07 05:39:16;;;;;;;3.50;0.95;;;;;;;;;;6288393;22;20320;-69
2023/11/07 05:41:42;;;;;;;5.00;1.00;;;;;;;;;;6288836;22;20420;-70
2023/11/07 05:44:07;;;;;;;4.28;1.35;;;;;;;;;;6284850;22;20002;-69
2023/11/07 05:46:32;;;;;;;4.68;1.08;;;;;;;;;;6262460;22;20026;-69
2023/11/07 05:48:57;;;;;;;3.85;1.25;;;;;;;;;;6259732;22;20369;-69
2023/11/07 05:51:23;;;;;;;8.07;1.17;;;;;;;;;;6252029;22;19996;-68
2023/11/07 05:53:51;;;;;;;7.45;1.25;;;;;;;;;;6246320;22;20498;-69
2023/11/07 05:56:18;;;;;;;7.13;1.15;;;;;;;;;;6276777;22;19996;-68
2023/11/07 05:58:43;;;;;;;4.82;1.20;;;;;;;;;;6276941;22;20003;-68
2023/11/07 06:01:09;;;;;;;5.97;1.10;;;;;;;;;;6248736;22;20003;-68
2023/11/07 06:03:34;;;;;;;4.82;1.83;;;;;;;;;;6276514;22;19999;-68
2023/11/07 06:05:59;;;;;;;5.28;2.15;;;;;;;;;;6246251;22;20921;-68
2023/11/07 06:08:25;;;;;;;6.85;2.20;;;;;;;;;;6251409;22;20011;-67
2023/11/07 06:10:50;;;;;;;8.50;2.60;;;;;;;;;;6248841;22;20006;-68
2023/11/07 06:13:15;;;;;;;6.80;3.17;;;;;;;;;;6253435;22;20003;-68
2023/11/07 06:15:40;;;;;;;6.68;2.47;;;;;;;;;;6278767;22;20244;-68
2023/11/07 06:18:06;;;;;;;5.82;1.80;;;;;;;;;;6286541;22;20416;-68
2023/11/07 06:20:32;;;;;;;4.93;1.77;;;;;;;;;;6286367;22;20018;-68
2023/11/07 06:22:57;;;;;;;7.53;1.20;;;;;;;;;;6286477;22;20002;-69
2023/11/07 06:25:25;;;;;;;3.58;1.10;;;;;;;;;;6259549;22;20003;-68
2023/11/07 06:27:51;;;;;;;5.30;1.35;;;;;;;;;;6288978;22;20076;-68
2023/11/07 06:30:20;;;;;;;4.63;1.60;;;;;;;;;;6249936;22;20830;-68
2023/11/07 06:32:49;;;;;;;4.63;2.10;;;;;;;;;;6287245;22;20102;-68
2023/11/07 06:35:15;;;;;;;4.60;1.65;;;;;;;;;;6285985;22;20733;-68
2023/11/07 06:37:40;;;;;;;3.80;1.70;;;;;;;;;;6251098;22;20007;-68
2023/11/07 06:40:13;;;;;;;5.13;1.70;;;;;;;;;;6287407;22;19999;-68
2023/11/07 06:42:42;;;;;;;5.85;2.38;;;;;;;;;;6258452;22;19999;-68
2023/11/07 06:45:11;;;;;;;5.55;2.10;;;;;;;;;;6286169;22;20090;-69
2023/11/07 06:47:37;;;;;;;3.95;1.70;;;;;;;;;;6255363;22;20469;-69
2023/11/07 06:50:02;;;;;;;5.35;2.13;;;;;;;;;;6257141;22;20678;-68
2023/11/07 06:52:28;;;;;;;6.15;2.30;;;;;;;;;;6284031;22;20060;-69
2023/11/07 06:54:53;;;;;;;7.40;2.92;;;;;;;;;;6289323;22;19999;-69
2023/11/07 06:57:18;;;;;;;5.20;1.83;;;;;;;;;;6287803;22;20375;-70
2023/11/07 06:59:43;;;;;;;4.43;1.60;;;;;;;;;;6260706;22;20034;-69
2023/11/07 07:02:15;;;;;;;4.93;2.08;;;;;;;;;;5051261;28;20374;-70
2023/11/07 07:04:41;;;;;;;4.70;1.63;;;;;;;;;;5044992;28;20895;-71
2023/11/07 07:07:06;;;;;;;6.13;1.73;;;;;;;;;;5043634;28;20523;-70
2023/11/07 07:09:31;;;;;;;4.73;2.40;;;;;;;;;;5043858;28;20028;-70
2023/11/07 07:11:58;;;;;;;6.47;2.40;;;;;;;;;;5046244;28;20279;-70
2023/11/07 07:14:23;;;;;;;5.30;2.38;;;;;;;;;;5038754;28;20021;-71
2023/11/07 07:16:48;;;;;;;5.95;2.22;;;;;;;;;;5038976;28;20028;-70
2023/11/07 07:19:18;;;;;;;6.43;2.20;;;;;;;;;;5052908;28;20025;-70
2023/11/07 07:21:43;;;;;;;;;;;;;;;;;;5048158;28;21186;-70
2023/11/07 07:24:21;;;;;;;5.22;2.10;;;;;;;;;;5046130;28;20415;-70
2023/11/07 07:26:46;;;;;;;5.82;2.33;;;;;;;;;;5055955;28;20044;-70
2023/11/07 07:29:15;;;;;;;6.97;2.67;;;;;;;;;;5050009;28;20028;-69
2023/11/07 07:31:41;;;;;;;7.97;2.53;;;;;;;;;;5048676;28;20028;-69
2023/11/07 07:34:08;;;;;;;5.50;2.10;;;;;;;;;;5052213;28;20020;-69
2023/11/07 07:36:43;;;;;;;6.07;2.40;;;;;;;;;;5048190;28;20064;-69
2023/11/07 07:39:29;;;;;;;7.00;2.50;;;;;;;;;;5040891;28;20021;-68
2023/11/07 07:42:09;;;;;;;4.65;1.70;;;;;;;;;;5042958;28;20033;-69
2023/11/07 07:44:35;;;;;;;5.13;1.90;;;;;;;;;;5051006;28;20021;-69
2023/11/07 07:47:00;;;;;;;5.30;2.00;;;;;;;;;;5047197;28;20040;-68
2023/11/07 07:49:26;;;;;;;5.03;2.20;;;;;;;;;;5049554;28;21804;-69
2023/11/07 07:51:55;;;;;;;5.78;2.25;;;;;;;;;;5047792;28;20036;-69
2023/11/07 07:54:22;;;;;;;5.25;2.15;;;;;;;;;;5047613;28;20074;-69
2023/11/07 07:56:54;;;;;;;5.68;2.15;;;;;;;;;;5047433;28;20151;-69
2023/11/07 07:59:23;;;;;;;5.05;2.13;;;;;;;;;;5047492;28;20012;-69
2023/11/07 08:01:52;;;;;;;6.95;2.50;;;;;;;;;;5046376;28;20040;-69
2023/11/07 08:04:20;;;;;;;;;;;;;;;;;;5044843;28;20021;-69
2023/11/07 08:06:45;;;;;;;6.43;1.58;;;;;;;;;;5051704;28;19995;-69
2023/11/07 08:09:13;;;;;;;4.57;1.35;;;;;;;;;;5041810;28;20677;-69
2023/11/07 08:11:38;;;;;;;4.22;1.50;;;;;;;;;;5038120;28;20110;-69
2023/11/07 08:14:07;;;;;;;3.60;1.20;;;;;;;;;;5030979;28;20092;-68
2023/11/07 08:16:32;;;;;;;3.78;1.13;;;;;;;;;;5034727;28;20028;-69
2023/11/07 08:19:00;;;;;;;4.40;1.48;;;;;;;;;;5035230;28;20021;-69
2023/11/07 08:21:26;;;;;;;5.30;2.30;;;;;;;;;;5028056;28;20593;-68
2023/11/07 08:23:53;;;;;;;8.20;3.05;;;;;;;;;;5033580;28;20021;-69
2023/11/07 08:26:19;;;;;;;5.50;2.65;;;;;;;;;;5030283;28;20021;-70
2023/11/07 08:28:44;;;;;;;4.90;1.98;;;;;;;;;;5036905;28;21313;-67
2023/11/07 08:31:11;;;;;;;6.18;2.22;;;;;;;;;;5035531;28;20014;-69
2023/11/07 08:33:37;;;;;;;6.13;2.00;;;;;;;;;;5030561;28;20024;-69
2023/11/07 08:36:03;;;;;;;5.82;1.90;;;;;;;;;;5036292;28;20021;-69
2023/11/07 08:38:30;;;;;;;5.00;2.00;;;;;;;;;;5026851;28;20597;-69
2023/11/07 08:40:56;;;;;;;5.15;1.88;;;;;;;;;;5027402;28;20025;-69
2023/11/07 08:43:22;;;;;;;6.30;2.20;;;;;;;;;;5028555;28;20017;-69
2023/11/07 08:45:47;;;;;;;4.53;1.40;;;;;;;;;;5033133;28;20083;-69
2023/11/07 08:48:15;;;;;;;4.53;1.27;;;;;;;;;;5037855;28;20021;-69
2023/11/07 08:50:41;;;;;;;5.72;2.53;;;;;;;;;;5033081;28;20021;-69
2023/11/07 08:53:06;;;;;;;5.50;2.25;;;;;;;;;;5030758;28;20476;-69
2023/11/07 08:55:31;;;;;;;5.07;2.03;;;;;;;;;;5025932;28;20079;-68
2023/11/07 08:57:59;;;;;;;2.05;0.63;;;;;;;;;;5021277;28;20561;-68
2023/11/07 09:00:27;;;;;;;2.83;1.00;;;;;;;;;;5018231;28;20056;-68
2023/11/07 09:02:52;;;;;;;2.78;0.80;;;;;;;;;;5017105;28;21049;-68
2023/11/07 09:05:20;;;;;;;3.15;0.90;;;;;;;;;;5020862;28;20876;-68
2023/11/07 09:07:46;;;;;;;2.58;0.80;;;;;;;;;;5023052;28;20060;-68
2023/11/07 09:10:12;;;;;;;4.53;1.05;;;;;;;;;;5018382;28;20018;-68
2023/11/07 09:12:41;;;;;;;4.95;1.20;;;;;;;;;;5020057;28;20044;-68
2023/11/07 09:15:07;;;;;;;3.50;1.00;;;;;;;;;;5021071;28;20094;-68
2023/11/07 09:17:32;;;;;;;2.63;0.70;;;;;;;;;;5023427;28;20427;-68
2023/11/07 09:20:01;;;;;;;2.10;0.80;;;;;;;;;;5018941;28;20804;-68
2023/11/07 09:22:26;;;;;;;3.25;0.70;;;;;;;;;;5020562;28;20548;-68
2023/11/07 09:24:54;;;;;;;2.43;0.63;;;;;;;;;;5021023;28;20019;-69
2023/11/07 09:27:20;;;;;;;2.30;0.60;;;;;;;;;;5022268;28;20664;-67
2023/11/07 09:29:46;;;;;;;3.90;0.70;;;;;;;;;;5022593;28;21022;-68
2023/11/07 09:32:14;;;;;;;2.72;0.80;;;;;;;;;;5020881;28;20021;-66
2023/11/07 09:34:45;;;;;;;2.03;0.50;;;;;;;;;;5019660;28;20032;-68
2023/11/07 09:37:14;;;;;;;2.67;0.55;;;;;;;;;;5020281;28;20023;-69
2023/11/07 09:39:41;;;;;;;1.57;0.60;;;;;;;;;;5018652;28;20468;-68
2023/11/07 09:42:07;;;;;;;1.27;0.50;;;;;;;;;;5010703;28;20410;-68
2023/11/07 09:44:38;;;;;;;1.75;0.50;;;;;;;;;;5025413;28;20017;-68
2023/11/07 09:47:04;;;;;;;1.83;0.60;;;;;;;;;;5019439;28;20042;-68
2023/11/07 09:49:30;;;;;;;2.03;0.60;;;;;;;;;;5021894;28;20040;-68
2023/11/07 09:51:58;;;;;;;1.95;0.60;;;;;;;;;;5018989;28;20198;-69
2023/11/07 09:54:27;;;;;;;1.10;0.40;;;;;;;;;;5019375;28;20515;-67
2023/11/07 09:56:54;;;;;;;1.85;0.60;;;;;;;;;;5019568;28;20067;-68
2023/11/07 09:59:25;;;;;;;2.38;0.70;;;;;;;;;;5018990;28;20110;-68
2023/11/07 10:01:51;;;;;;;1.38;0.50;;;;;;;;;;5019539;28;20056;-67
2023/11/07 10:04:19;;;;;;;2.55;0.80;;;;;;;;;;5018118;28;20025;-68
2023/11/07 10:06:44;;;;;;;2.55;0.90;;;;;;;;;;5020037;28;20021;-68
2023/11/07 10:09:14;;;;;;;3.75;0.90;;;;;;;;;;5017865;28;20017;-68
2023/11/07 10:11:45;;;;;;;3.60;1.25;;;;;;;;;;5017608;28;20048;-68
2023/11/07 10:14:11;;;;;;;3.13;0.70;;;;;;;;;;5018126;28;20100;-69
2023/11/07 10:16:37;;;;;;;0.95;0.45;;;;;;;;;;5018898;28;20109;-68
2023/11/07 10:19:07;;;;;;;1.98;0.60;;;;;;;;;;5016288;28;20025;-69
2023/11/07 10:21:32;;;;;;;1.13;0.50;;;;;;;;;;5019195;28;20013;-68
2023/11/07 10:23:58;;;;;;;1.23;0.40;;;;;;;;;;5017666;28;20029;-69
2023/11/07 10:26:27;;;;;;;1.65;0.52;;;;;;;;;;5025860;28;20017;-68
2023/11/07 10:29:14;;;;;;;1.58;0.50;;;;;;;;;;5019160;28;20118;-69
2023/11/07 10:31:41;;;;;;;2.10;0.60;;;;;;;;;;5015202;28;20025;-70
2023/11/07 10:34:16;;;;;;;1.63;0.50;;;;;;;;;;5019301;28;20025;-68
2023/11/07 10:36:45;;;;;;;1.35;0.50;;;;;;;;;;5022764;28;20032;-68
2023/11/07 10:39:14;;;;;;;1.90;0.57;;;;;;;;;;5017465;28;20033;-68
2023/11/07 10:41:39;;;;;;;4.07;0.77;;;;;;;;;;5017049;28;20028;-69
2023/11/07 10:44:28;;;;;;;1.95;0.50;;;;;;;;;;5012510;28;20029;-67
2023/11/07 10:46:57;;;;;;;1.90;0.60;;;;;;;;;;5028270;28;20036;-67
2023/11/07 10:49:25;;;;;;;2.58;0.57;;;;;;;;;;5017372;28;20099;-68
2023/11/07 10:51:51;;;;;;;1.33;0.50;;;;;;;;;;5019203;28;20074;-67
2023/11/07 10:54:21;;;;;;;1.50;0.73;;;;;;;;;;5022901;28;20021;-68
2023/11/07 10:56:50;;;;;;;1.42;0.50;;;;;;;;;;5020137;28;20067;-67
2023/11/07 10:59:20;;;;;;;1.55;0.45;;;;;;;;;;5019564;28;20097;-69
2023/11/07 11:01:50;;;;;;;1.98;0.40;;;;;;;;;;5017373;28;20198;-68
2023/11/07 11:04:16;;;;;;;2.28;0.80;;;;;;;;;;5021543;28;20017;-69
2023/11/07 11:06:45;;;;;;;2.53;0.70;;;;;;;;;;5025024;28;21045;-67
2023/11/07 11:09:10;;;;;;;2.83;0.70;;;;;;;;;;5020402;28;20064;-68
2023/11/07 11:11:37;;;;;;;1.35;0.50;;;;;;;;;;5015756;28;20120;-67
2023/11/07 11:14:04;;;;;;;2.05;0.60;;;;;;;;;;5011268;28;20021;-67
2023/11/07 11:16:30;;;;;;;1.88;0.60;;;;;;;;;;5017330;28;20036;-68
2023/11/07 11:18:59;;;;;;;1.38;0.47;;;;;;;;;;5019408;28;20017;-69
2023/11/07 11:21:27;;;;;;;2.10;0.68;;;;;;;;;;5014612;28;20026;-66
2023/11/07 11:24:07;;;;;;;2.17;0.50;;;;;;;;;;5047924;28;20426;-70
2023/11/07 11:26:47;;;;;;;2.05;0.65;;;;;;;;;;5024739;28;20033;-67
2023/11/07 11:29:28;;;;;;;2.22;0.70;;;;;;;;;;5016987;28;20368;-69
2023/11/07 11:31:56;;;;;;;2.97;0.70;;;;;;;;;;5019698;28;20227;-68
2023/11/07 11:34:31;;;;;;;2.92;0.70;;;;;;;;;;5018365;28;20052;-69
2023/11/07 11:37:00;;;;;;;2.13;0.60;;;;;;;;;;5020378;28;20024;-68
2023/11/07 11:39:36;;;;;;;1.70;0.60;;;;;;;;;;5013100;28;20028;-69
2023/11/07 11:42:04;;;;;;;3.00;0.68;;;;;;;;;;5014477;28;20509;-69
2023/11/07 11:44:30;;;;;;;1.55;0.50;;;;;;;;;;5012650;28;20025;-69
2023/11/07 11:46:55;;;;;;;1.67;0.60;;;;;;;;;;5015472;28;20019;-68
2023/11/07 11:49:27;;;;;;;2.50;0.68;;;;;;;;;;5054630;28;20151;-70
2023/11/07 11:51:53;;;;;;;1.77;0.60;;;;;;;;;;5020448;28;20083;-69
2023/11/07 11:54:21;;;;;;;1.73;0.60;;;;;;;;;;5021099;28;20017;-69
2023/11/07 11:56:49;;;;;;;2.67;0.73;;;;;;;;;;5026041;28;20020;-68
2023/11/07 11:59:17;;;;;;;1.17;0.50;;;;;;;;;;5022221;28;20017;-69
2023/11/07 12:02:03;;;;;;;2.17;0.50;;;;;;;;;;5020887;28;20049;-65
2023/11/07 12:04:32;;;;;;;2.63;0.73;;;;;;;;;;5019608;28;20055;-70
2023/11/07 12:07:07;;;;;;;3.20;1.20;;;;;;;;;;5022277;28;20025;-68
2023/11/07 12:09:47;;;;;;;3.10;1.00;;;;;;;;;;5021923;28;20052;-69
2023/11/07 12:12:14;;;;;;;3.67;1.02;;;;;;;;;;5021141;28;20628;-70
2023/11/07 12:14:52;;;;;;;2.05;0.90;;;;;;;;;;5024390;28;20363;-69
2023/11/07 12:17:21;;;;;;;3.33;0.88;;;;;;;;;;5016771;28;20029;-69
2023/11/07 12:19:47;;;;;;;4.60;1.02;;;;;;;;;;5022995;28;20017;-70
2023/11/07 12:22:14;;;;;;;1.42;0.60;;;;;;;;;;5017605;28;20472;-69
2023/11/07 12:24:39;;;;;;;2.85;0.80;;;;;;;;;;5022861;28;20124;-69
2023/11/07 12:27:04;;;;;;;3.23;0.80;;;;;;;;;;5019625;28;20062;-69
2023/11/07 12:29:30;;;;;;;4.13;0.80;;;;;;;;;;5021845;28;20291;-69
2023/11/07 12:32:00;;;;;;;2.72;0.80;;;;;;;;;;5019941;28;20293;-70
2023/11/07 12:34:32;;;;;;;2.92;0.77;;;;;;;;;;5019663;28;20627;-69
2023/11/07 12:37:03;;;;;;;3.42;0.70;;;;;;;;;;5028043;28;20032;-69
2023/11/07 12:39:28;;;;;;;2.08;0.55;;;;;;;;;;5019087;28;20041;-69
2023/11/07 12:41:54;;;;;;;1.73;0.70;;;;;;;;;;5021128;28;20106;-68
2023/11/07 12:44:23;;;;;;;2.22;0.80;;;;;;;;;;5026742;28;20148;-71
2023/11/07 12:46:48;;;;;;;2.25;0.80;;;;;;;;;;5014077;28;20078;-68
2023/11/07 12:49:14;;;;;;;3.58;0.80;;;;;;;;;;5022325;28;20447;-68
2023/11/07 12:51:40;;;;;;;2.55;0.88;;;;;;;;;;5018465;28;20304;-70
2023/11/07 12:54:05;;;;;;;2.25;0.70;;;;;;;;;;5020996;28;20048;-70
2023/11/07 12:56:30;;;;;;;3.00;0.70;;;;;;;;;;5020136;28;20759;-70
2023/11/07 12:59:07;;;;;;;1.98;0.70;;;;;;;;;;5022089;28;20094;-71
2023/11/07 13:01:33;;;;;;;2.90;0.98;;;;;;;;;;5020518;28;20042;-69
2023/11/07 13:04:01;;;;;;;2.90;1.00;;;;;;;;;;5019685;28;20047;-72
2023/11/07 13:06:28;;;;;;;2.92;0.80;;;;;;;;;;5020330;28;20128;-69
2023/11/07 13:08:57;;;;;;;2.42;0.80;;;;;;;;;;5024450;28;20171;-69
2023/11/07 13:11:26;;;;;;;1.60;0.60;;;;;;;;;;5025228;28;20051;-69
2023/11/07 13:13:51;;;;;;;2.05;0.70;;;;;;;;;;5034272;28;20108;-69
2023/11/07 13:16:17;;;;;;;2.23;0.70;;;;;;;;;;5033321;28;20028;-70
2023/11/07 13:18:56;;;;;;;2.97;0.75;;;;;;;;;;5025172;28;20274;-71
2023/11/07 13:21:22;;;;;;;1.55;0.70;;;;;;;;;;5028121;28;20043;-70
2023/11/07 13:23:47;;;;;;;3.85;0.85;;;;;;;;;;5030638;28;20014;-71
2023/11/07 13:26:14;;;;;;;2.95;0.93;;;;;;;;;;5031791;28;20029;-71
2023/11/07 13:28:40;;;;;;;2.60;0.70;;;;;;;;;;5038052;28;20618;-70
2023/11/07 13:31:06;;;;;;;2.42;0.60;;;;;;;;;;5036650;28;20115;-71
2023/11/07 13:33:31;;;;;;;2.17;0.80;;;;;;;;;;5035140;28;20035;-69
2023/11/07 13:35:57;;;;;;;4.03;0.70;;;;;;;;;;5032859;28;20025;-72
2023/11/07 13:38:22;;;;;;;2.15;0.68;;;;;;;;;;5025004;28;20021;-70
2023/11/07 13:40:47;;;;;;;2.97;0.73;;;;;;;;;;5029265;28;20052;-69
2023/11/07 13:43:15;;;;;;;2.67;0.80;;;;;;;;;;5027014;28;20051;-71
2023/11/07 13:45:40;;;;;;;2.35;0.70;;;;;;;;;;5037412;28;20071;-71
2023/11/07 13:48:06;;;;;;;3.72;1.00;;;;;;;;;;5035418;28;20016;-71
2023/11/07 13:50:31;;;;;;;2.75;0.85;;;;;;;;;;5028968;28;20932;-72
2023/11/07 13:52:59;;;;;;;4.38;0.90;;;;;;;;;;5032309;28;20020;-72
2023/11/07 13:55:28;;;;;;;2.58;0.80;;;;;;;;;;5024173;28;20025;-70
2023/11/07 13:57:56;;;;;;;2.00;0.70;;;;;;;;;;5063679;28;20107;-69
2023/11/07 14:00:22;;;;;;;2.40;0.80;;;;;;;;;;5036315;28;20028;-72
2023/11/07 14:02:54;;;;;;;3.22;1.10;;;;;;;;;;5034538;28;20025;-71
2023/11/07 14:05:19;;;;;;;2.42;0.80;;;;;;;;;;5035717;28;20028;-69
2023/11/07 14:07:47;;;;;;;2.05;0.75;;;;;;;;;;5035600;28;20027;-72
2023/11/07 14:10:13;;;;;;;3.88;0.80;;;;;;;;;;5027922;28;20066;-72
2023/11/07 14:12:41;;;;;;;2.13;0.80;;;;;;;;;;5032203;28;20372;-72
2023/11/07 14:15:08;;;;;;;3.20;0.90;;;;;;;;;;5033088;28;20025;-71
2023/11/07 14:17:33;;;;;;;4.60;1.00;;;;;;;;;;5031410;28;20033;-75
2023/11/07 14:19:59;;;;;;;3.55;0.90;;;;;;;;;;5024483;28;20433;-71
2023/11/07 14:22:26;;;;;;;2.83;0.90;;;;;;;;;;5026057;28;20048;-72
2023/11/07 14:24:58;;;;;;;2.65;0.88;;;;;;;;;;5032115;28;20029;-73
2023/11/07 14:27:23;;;;;;;3.60;1.10;;;;;;;;;;5034224;28;20040;-71
2023/11/07 14:29:49;;;;;;;3.60;1.00;;;;;;;;;;5033384;28;20139;-71
2023/11/07 14:32:15;;;;;;;4.30;1.25;;;;;;;;;;5032374;28;20029;-71
2023/11/07 14:34:41;;;;;;;4.93;1.40;;;;;;;;;;5027952;28;20464;-70
2023/11/07 14:37:06;;;;;;;5.22;1.40;;;;;;;;;;5026769;28;20040;-69
2023/11/07 14:39:31;;;;;;;4.10;1.20;;;;;;;;;;5029395;28;20547;-69
2023/11/07 14:41:57;;;;;;;4.68;1.13;;;;;;;;;;5035448;28;20043;-70